createdAt,value
2019-01-30T00:00:36.227Z,19.56
2019-01-30T00:01:33.477Z,19.56
2019-01-30T00:02:30.211Z,19.56
2019-01-30T00:03:26.825Z,19.56
2019-01-30T00:04:23.882Z,19.56
2019-01-30T00:05:21.902Z,19.56
2019-01-30T00:06:18.544Z,19.50
2019-01-30T00:07:16.411Z,19.50
2019-01-30T00:08:13.116Z,19.50
2019-01-30T00:09:09.738Z,19.50
2019-01-30T00:10:06.433Z,19.50
2019-01-30T00:11:03.086Z,19.50
2019-01-30T00:11:59.897Z,19.50
2019-01-30T00:12:56.511Z,19.50
2019-01-30T00:13:53.382Z,19.44
2019-01-30T00:14:50.114Z,19.44
2019-01-30T00:15:56.096Z,19.44
2019-01-30T00:16:47.128Z,19.44
2019-01-30T00:17:43.730Z,19.44
2019-01-30T00:18:40.347Z,19.44
2019-01-30T00:19:37.059Z,19.44
2019-01-30T00:20:33.830Z,19.44
2019-01-30T00:21:30.492Z,19.44
2019-01-30T00:22:27.349Z,19.37
2019-01-30T00:23:24.059Z,19.37
2019-01-30T00:24:20.681Z,19.37
2019-01-30T00:25:17.294Z,19.37
2019-01-30T00:26:14.563Z,19.37
2019-01-30T00:27:11.189Z,19.37
2019-01-30T00:28:07.800Z,19.37
2019-01-30T00:29:04.451Z,19.37
2019-01-30T00:30:04.107Z,19.37
2019-01-30T00:30:59.582Z,19.37
2019-01-30T00:31:56.563Z,19.31
2019-01-30T00:32:53.207Z,19.31
2019-01-30T00:33:50.098Z,19.31
2019-01-30T00:34:46.707Z,19.31
2019-01-30T00:35:43.360Z,19.31
2019-01-30T00:36:40.081Z,19.31
2019-01-30T00:37:36.710Z,19.31
2019-01-30T00:38:33.560Z,19.31
2019-01-30T00:39:30.267Z,19.25
2019-01-30T00:40:26.875Z,19.25
2019-01-30T00:41:23.595Z,19.25
2019-01-30T00:42:20.218Z,19.25
2019-01-30T00:43:16.826Z,19.25
2019-01-30T00:44:14.584Z,19.25
2019-01-30T00:45:11.264Z,19.25
2019-01-30T00:46:07.974Z,19.25
2019-01-30T00:47:04.567Z,19.25
2019-01-30T00:48:01.226Z,19.25
2019-01-30T00:48:58.091Z,19.19
2019-01-30T00:49:54.694Z,19.19
2019-01-30T00:50:51.297Z,19.19
2019-01-30T00:51:47.946Z,19.19
2019-01-30T00:52:44.669Z,19.19
2019-01-30T00:53:41.286Z,19.19
2019-01-30T00:54:38.306Z,19.19
2019-01-30T00:55:34.928Z,19.19
2019-01-30T00:56:31.621Z,19.19
2019-01-30T00:57:28.218Z,19.19
2019-01-30T00:58:24.861Z,19.19
2019-01-30T00:59:21.839Z,19.12
2019-01-30T01:00:18.495Z,19.12
2019-01-30T01:01:15.101Z,19.12
2019-01-30T01:02:12.000Z,19.12
2019-01-30T01:03:08.625Z,19.12
2019-01-30T01:04:05.294Z,19.12
2019-01-30T01:05:02.209Z,19.12
2019-01-30T01:05:58.839Z,19.12
2019-01-30T01:06:55.587Z,19.12
2019-01-30T01:07:52.222Z,19.06
2019-01-30T01:08:48.858Z,19.06
2019-01-30T01:09:45.530Z,19.06
2019-01-30T01:10:42.225Z,19.06
2019-01-30T01:11:38.830Z,19.06
2019-01-30T01:12:35.433Z,19.06
2019-01-30T01:13:32.398Z,19.06
2019-01-30T01:14:29.072Z,19.06
2019-01-30T01:15:25.939Z,19.06
2019-01-30T01:16:22.621Z,19.06
2019-01-30T01:17:19.296Z,19.06
2019-01-30T01:18:16.310Z,19.00
2019-01-30T01:19:12.979Z,19.00
2019-01-30T01:20:09.756Z,19.00
2019-01-30T01:21:06.474Z,19.00
2019-01-30T01:22:03.206Z,19.00
2019-01-30T01:22:59.920Z,19.00
2019-01-30T01:24:02.550Z,19.00
2019-01-30T01:24:59.249Z,19.00
2019-01-30T01:25:55.941Z,19.00
2019-01-30T01:26:52.542Z,19.00
2019-01-30T01:27:49.134Z,18.94
2019-01-30T01:28:45.754Z,18.94
2019-01-30T01:29:42.373Z,18.94
2019-01-30T01:30:39.019Z,18.94
2019-01-30T01:31:35.698Z,18.94
2019-01-30T01:32:32.525Z,18.94
2019-01-30T01:33:29.213Z,18.94
2019-01-30T01:34:26.070Z,18.94
2019-01-30T01:35:22.725Z,18.94
2019-01-30T01:36:19.798Z,18.94
2019-01-30T01:37:16.428Z,18.94
2019-01-30T01:38:13.102Z,18.94
2019-01-30T01:39:10.071Z,18.87
2019-01-30T01:40:06.679Z,18.87
2019-01-30T01:41:03.278Z,18.87
2019-01-30T01:41:59.896Z,18.87
2019-01-30T01:42:56.739Z,18.87
2019-01-30T01:43:53.338Z,18.87
2019-01-30T01:44:50.210Z,18.87
2019-01-30T01:45:46.816Z,18.87
2019-01-30T01:46:43.406Z,18.87
2019-01-30T01:47:40.023Z,18.87
2019-01-30T01:48:36.609Z,18.87
2019-01-30T01:49:33.229Z,18.87
2019-01-30T01:50:29.871Z,18.81
2019-01-30T01:51:26.804Z,18.81
2019-01-30T01:52:23.398Z,18.81
2019-01-30T01:53:20.012Z,18.81
2019-01-30T01:54:16.718Z,18.81
2019-01-30T01:55:13.339Z,18.81
2019-01-30T01:56:10.137Z,18.81
2019-01-30T01:57:06.747Z,18.81
2019-01-30T01:58:03.357Z,18.81
2019-01-30T01:58:59.982Z,18.81
2019-01-30T01:59:56.947Z,18.81
2019-01-30T02:00:53.722Z,18.75
2019-01-30T02:01:50.415Z,18.75
2019-01-30T02:02:47.113Z,18.75
2019-01-30T02:03:43.879Z,18.75
2019-01-30T02:04:40.855Z,18.75
2019-01-30T02:05:37.565Z,18.75
2019-01-30T02:06:34.315Z,18.75
2019-01-30T02:07:31.003Z,18.75
2019-01-30T02:08:27.606Z,18.75
2019-01-30T02:09:24.206Z,18.75
2019-01-30T02:10:21.530Z,18.75
2019-01-30T02:11:18.231Z,18.75
2019-01-30T02:12:14.879Z,18.75
2019-01-30T02:13:11.483Z,18.75
2019-01-30T02:14:08.077Z,18.69
2019-01-30T02:15:04.895Z,18.69
2019-01-30T02:16:01.589Z,18.69
2019-01-30T02:16:58.453Z,18.69
2019-01-30T02:17:55.147Z,18.69
2019-01-30T02:18:51.767Z,18.69
2019-01-30T02:19:48.521Z,18.69
2019-01-30T02:20:45.217Z,18.69
2019-01-30T02:21:41.834Z,18.69
2019-01-30T02:22:38.431Z,18.69
2019-01-30T02:23:35.031Z,18.69
2019-01-30T02:24:31.627Z,18.69
2019-01-30T02:25:28.453Z,18.62
2019-01-30T02:26:25.155Z,18.62
2019-01-30T02:27:21.787Z,18.62
2019-01-30T02:28:18.403Z,18.62
2019-01-30T02:29:15.382Z,18.62
2019-01-30T02:30:12.628Z,18.62
2019-01-30T02:31:09.442Z,18.62
2019-01-30T02:32:06.079Z,18.62
2019-01-30T02:33:02.679Z,18.62
2019-01-30T02:33:59.372Z,18.62
2019-01-30T02:34:55.989Z,18.62
2019-01-30T02:35:53.996Z,18.56
2019-01-30T02:36:57.106Z,18.56
2019-01-30T02:37:53.816Z,18.56
2019-01-30T02:38:50.418Z,18.56
2019-01-30T02:39:48.251Z,18.56
2019-01-30T02:40:44.870Z,18.56
2019-01-30T02:41:41.583Z,18.56
2019-01-30T02:42:38.449Z,18.56
2019-01-30T02:43:35.197Z,18.56
2019-01-30T02:44:31.821Z,18.56
2019-01-30T02:45:28.418Z,18.56
2019-01-30T02:46:25.268Z,18.56
2019-01-30T02:47:21.897Z,18.56
2019-01-30T02:48:18.774Z,18.56
2019-01-30T02:49:15.372Z,18.50
2019-01-30T02:50:15.419Z,18.50
2019-01-30T02:51:12.030Z,18.50
2019-01-30T02:52:08.658Z,18.50
2019-01-30T02:53:05.295Z,18.50
2019-01-30T02:54:01.991Z,18.50
2019-01-30T02:54:58.739Z,18.50
2019-01-30T02:55:55.363Z,18.50
2019-01-30T02:56:52.066Z,18.50
2019-01-30T02:57:49.085Z,18.50
2019-01-30T02:58:45.714Z,18.50
2019-01-30T02:59:42.502Z,18.50
2019-01-30T03:00:39.175Z,18.50
2019-01-30T03:01:45.708Z,18.50
2019-01-30T03:02:42.442Z,18.44
2019-01-30T03:03:39.151Z,18.44
2019-01-30T03:04:35.763Z,18.44
2019-01-30T03:05:32.748Z,18.44
2019-01-30T03:06:29.355Z,18.44
2019-01-30T03:07:25.972Z,18.44
2019-01-30T03:08:22.595Z,18.44
2019-01-30T03:09:19.378Z,18.44
2019-01-30T03:10:18.138Z,18.44
2019-01-30T03:11:14.998Z,18.44
2019-01-30T03:12:11.688Z,18.44
2019-01-30T03:13:08.285Z,18.44
2019-01-30T03:14:04.931Z,18.44
2019-01-30T03:15:02.100Z,18.44
2019-01-30T03:15:58.814Z,18.44
2019-01-30T03:16:55.413Z,18.37
2019-01-30T03:17:52.026Z,18.37
2019-01-30T03:18:48.676Z,18.37
2019-01-30T03:19:45.267Z,18.37
2019-01-30T03:20:41.906Z,18.37
2019-01-30T03:21:38.608Z,18.37
2019-01-30T03:22:35.311Z,18.37
2019-01-30T03:23:31.962Z,18.37
2019-01-30T03:24:29.085Z,18.37
2019-01-30T03:25:26.401Z,18.37
2019-01-30T03:26:23.009Z,18.37
2019-01-30T03:27:19.710Z,18.37
2019-01-30T03:28:16.308Z,18.37
2019-01-30T03:29:12.943Z,18.37
2019-01-30T03:30:09.905Z,18.31
2019-01-30T03:31:16.849Z,18.37
2019-01-30T03:32:05.350Z,18.31
2019-01-30T03:33:01.959Z,18.31
2019-01-30T03:33:58.651Z,18.31
2019-01-30T03:34:55.283Z,18.31
2019-01-30T03:35:52.136Z,18.31
2019-01-30T03:36:48.738Z,18.31
2019-01-30T03:37:45.355Z,18.31
2019-01-30T03:38:42.255Z,18.31
2019-01-30T03:39:38.894Z,18.31
2019-01-30T03:40:35.518Z,18.31
2019-01-30T03:41:32.119Z,18.31
2019-01-30T03:42:28.771Z,18.31
2019-01-30T03:43:25.583Z,18.25
2019-01-30T03:44:22.287Z,18.25
2019-01-30T03:45:18.915Z,18.25
2019-01-30T03:46:15.517Z,18.25
2019-01-30T03:47:12.130Z,18.25
2019-01-30T03:48:08.930Z,18.25
2019-01-30T03:49:05.649Z,18.25
2019-01-30T03:50:02.257Z,18.25
2019-01-30T03:50:58.866Z,18.25
2019-01-30T03:51:58.348Z,18.25
2019-01-30T03:52:55.010Z,18.25
2019-01-30T03:53:51.825Z,18.25
2019-01-30T03:54:48.518Z,18.25
2019-01-30T03:55:45.419Z,18.25
2019-01-30T03:56:42.042Z,18.25
2019-01-30T03:57:38.647Z,18.25
2019-01-30T03:58:41.094Z,18.25
2019-01-30T03:59:37.669Z,18.19
2019-01-30T04:00:37.015Z,18.19
2019-01-30T04:01:33.634Z,18.19
2019-01-30T04:02:30.284Z,18.19
2019-01-30T04:03:26.874Z,18.19
2019-01-30T04:04:26.568Z,18.19
2019-01-30T04:05:23.167Z,18.19
2019-01-30T04:06:19.946Z,18.19
2019-01-30T04:07:16.611Z,18.19
2019-01-30T04:08:14.382Z,18.19
2019-01-30T04:09:11.053Z,18.19
2019-01-30T04:10:07.688Z,18.19
2019-01-30T04:11:04.410Z,18.19
2019-01-30T04:12:01.110Z,18.19
2019-01-30T04:12:57.783Z,18.19
2019-01-30T04:13:54.386Z,18.19
2019-01-30T04:14:52.509Z,18.12
2019-01-30T04:15:49.131Z,18.19
2019-01-30T04:16:46.254Z,18.12
2019-01-30T04:17:43.966Z,18.12
2019-01-30T04:18:40.618Z,18.12
2019-01-30T04:19:39.994Z,18.12
2019-01-30T04:20:36.622Z,18.12
2019-01-30T04:21:33.284Z,18.12
2019-01-30T04:22:30.194Z,18.12
2019-01-30T04:23:26.795Z,18.12
2019-01-30T04:24:25.964Z,18.12
2019-01-30T04:25:22.579Z,18.12
2019-01-30T04:26:22.549Z,18.12
2019-01-30T04:27:19.416Z,18.12
2019-01-30T04:28:16.103Z,18.12
2019-01-30T04:29:12.706Z,18.12
2019-01-30T04:30:09.334Z,18.12
2019-01-30T04:31:06.310Z,18.12
2019-01-30T04:32:02.968Z,18.06
2019-01-30T04:32:59.831Z,18.12
2019-01-30T04:33:56.433Z,18.06
2019-01-30T04:34:53.053Z,18.06
2019-01-30T04:35:50.059Z,18.06
2019-01-30T04:36:46.646Z,18.06
2019-01-30T04:37:45.908Z,18.06
2019-01-30T04:38:42.598Z,18.06
2019-01-30T04:39:39.178Z,18.06
2019-01-30T04:40:35.834Z,18.06
2019-01-30T04:41:32.453Z,18.06
2019-01-30T04:42:29.721Z,18.06
2019-01-30T04:43:26.467Z,18.06
2019-01-30T04:44:23.066Z,18.06
2019-01-30T04:45:19.670Z,18.06
2019-01-30T04:46:16.270Z,18.06
2019-01-30T04:47:12.907Z,18.06
2019-01-30T04:48:09.747Z,18.00
2019-01-30T04:49:06.345Z,18.00
2019-01-30T04:50:03.066Z,18.00
2019-01-30T04:50:59.686Z,18.00
2019-01-30T04:51:56.613Z,18.00
2019-01-30T04:52:53.239Z,18.00
2019-01-30T04:53:49.905Z,18.00
2019-01-30T04:54:46.507Z,18.00
2019-01-30T04:55:43.103Z,18.00
2019-01-30T04:56:39.835Z,17.87
2019-01-30T04:57:36.590Z,17.31
2019-01-30T04:58:33.315Z,18.12
2019-01-30T04:59:30.090Z,22.56
2019-01-30T05:00:26.681Z,28.00
2019-01-30T05:01:23.290Z,30.62
2019-01-30T05:02:19.878Z,31.25
2019-01-30T05:03:16.682Z,31.37
2019-01-30T05:04:14.745Z,31.56
2019-01-30T05:05:11.395Z,31.87
2019-01-30T05:06:07.998Z,32.13
2019-01-30T05:07:04.688Z,32.38
2019-01-30T05:08:01.302Z,32.63
2019-01-30T05:08:58.140Z,32.81
2019-01-30T05:09:54.834Z,33.00
2019-01-30T05:10:51.477Z,33.19
2019-01-30T05:11:48.306Z,33.38
2019-01-30T05:12:44.962Z,33.56
2019-01-30T05:13:41.573Z,33.75
2019-01-30T05:14:38.570Z,33.94
2019-01-30T05:15:35.193Z,34.13
2019-01-30T05:16:31.818Z,34.31
2019-01-30T05:17:28.425Z,34.50
2019-01-30T05:18:25.034Z,34.69
2019-01-30T05:19:21.769Z,34.88
2019-01-30T05:20:18.636Z,35.00
2019-01-30T05:21:15.286Z,35.19
2019-01-30T05:22:12.066Z,35.31
2019-01-30T05:23:08.715Z,35.44
2019-01-30T05:24:08.194Z,35.56
2019-01-30T05:25:04.811Z,35.69
2019-01-30T05:26:01.411Z,35.81
2019-01-30T05:26:58.026Z,35.94
2019-01-30T05:27:54.924Z,36.06
2019-01-30T05:28:51.539Z,36.25
2019-01-30T05:29:48.187Z,36.38
2019-01-30T05:30:44.907Z,36.50
2019-01-30T05:31:41.606Z,36.63
2019-01-30T05:32:38.253Z,36.75
2019-01-30T05:33:34.963Z,36.88
2019-01-30T05:34:31.576Z,36.94
2019-01-30T05:35:30.989Z,37.06
2019-01-30T05:36:28.619Z,37.25
2019-01-30T05:37:25.227Z,37.31
2019-01-30T05:38:21.917Z,37.44
2019-01-30T05:39:18.542Z,37.56
2019-01-30T05:40:15.226Z,37.63
2019-01-30T05:41:12.138Z,37.75
2019-01-30T05:42:08.823Z,37.81
2019-01-30T05:43:05.422Z,37.94
2019-01-30T05:44:02.019Z,38.00
2019-01-30T05:44:58.666Z,38.13
2019-01-30T05:45:55.310Z,38.19
2019-01-30T05:46:51.907Z,38.25
2019-01-30T05:47:48.750Z,38.31
2019-01-30T05:48:45.352Z,38.44
2019-01-30T05:49:43.708Z,38.56
2019-01-30T05:50:40.330Z,38.75
2019-01-30T05:51:37.055Z,38.94
2019-01-30T05:52:33.784Z,39.06
2019-01-30T05:53:30.490Z,39.13
2019-01-30T05:54:27.180Z,39.25
2019-01-30T05:55:23.811Z,39.38
2019-01-30T05:56:20.447Z,39.44
2019-01-30T05:57:17.268Z,39.56
2019-01-30T05:58:13.877Z,39.69
2019-01-30T05:59:10.486Z,39.81
2019-01-30T06:00:07.083Z,39.94
2019-01-30T06:01:03.698Z,39.94
2019-01-30T06:02:11.501Z,39.81
2019-01-30T06:02:59.126Z,39.56
2019-01-30T06:03:55.745Z,39.38
2019-01-30T06:04:52.359Z,39.19
2019-01-30T06:05:49.059Z,39.13
2019-01-30T06:06:45.773Z,39.06
2019-01-30T06:07:42.518Z,39.00
2019-01-30T06:08:39.114Z,38.94
2019-01-30T06:09:36.015Z,38.88
2019-01-30T06:10:32.663Z,38.81
2019-01-30T06:11:29.395Z,38.75
2019-01-30T06:12:25.995Z,38.75
2019-01-30T06:13:22.911Z,38.69
2019-01-30T06:14:19.518Z,38.56
2019-01-30T06:15:16.123Z,38.19
2019-01-30T06:16:13.178Z,37.50
2019-01-30T06:17:09.917Z,36.44
2019-01-30T06:18:06.568Z,35.00
2019-01-30T06:19:03.318Z,33.56
2019-01-30T06:20:02.798Z,32.38
2019-01-30T06:20:59.402Z,32.31
2019-01-30T06:21:56.062Z,33.25
2019-01-30T06:22:52.853Z,34.69
2019-01-30T06:23:49.444Z,36.00
2019-01-30T06:24:49.127Z,37.06
2019-01-30T06:25:45.850Z,37.88
2019-01-30T06:26:42.531Z,38.50
2019-01-30T06:27:39.267Z,38.94
2019-01-30T06:28:36.002Z,39.31
2019-01-30T06:29:32.778Z,39.56
2019-01-30T06:30:29.484Z,39.81
2019-01-30T06:31:27.149Z,40.00
2019-01-30T06:32:24.027Z,40.12
2019-01-30T06:33:21.945Z,40.25
2019-01-30T06:34:18.686Z,40.19
2019-01-30T06:35:15.787Z,39.94
2019-01-30T06:36:12.646Z,39.63
2019-01-30T06:37:09.383Z,39.38
2019-01-30T06:38:06.057Z,39.19
2019-01-30T06:39:03.327Z,39.06
2019-01-30T06:40:00.015Z,38.88
2019-01-30T06:40:58.095Z,38.75
2019-01-30T06:41:55.051Z,38.63
2019-01-30T06:42:51.677Z,38.50
2019-01-30T06:43:48.319Z,38.31
2019-01-30T06:44:45.443Z,37.94
2019-01-30T06:45:42.174Z,37.31
2019-01-30T06:46:39.218Z,36.38
2019-01-30T06:47:36.330Z,35.00
2019-01-30T06:48:32.965Z,33.63
2019-01-30T06:49:29.585Z,32.44
2019-01-30T06:50:26.189Z,32.06
2019-01-30T06:51:23.098Z,32.81
2019-01-30T06:52:19.803Z,34.19
2019-01-30T06:53:16.410Z,35.63
2019-01-30T06:54:15.866Z,36.88
2019-01-30T06:55:13.597Z,38.00
2019-01-30T06:56:10.292Z,38.88
2019-01-30T06:57:06.921Z,39.44
2019-01-30T06:58:03.574Z,39.75
2019-01-30T06:59:00.285Z,39.69
2019-01-30T06:59:57.094Z,39.50
2019-01-30T07:00:53.779Z,39.25
2019-01-30T07:01:52.081Z,39.00
2019-01-30T07:02:48.679Z,38.81
2019-01-30T07:03:45.355Z,38.69
2019-01-30T07:04:41.986Z,38.50
2019-01-30T07:05:38.631Z,38.38
2019-01-30T07:06:35.474Z,38.19
2019-01-30T07:07:32.478Z,37.88
2019-01-30T07:08:29.219Z,37.38
2019-01-30T07:09:25.814Z,36.50
2019-01-30T07:10:22.425Z,35.38
2019-01-30T07:11:19.330Z,34.06
2019-01-30T07:12:16.534Z,32.81
2019-01-30T07:13:13.142Z,32.06
2019-01-30T07:14:10.997Z,32.44
2019-01-30T07:15:07.737Z,33.75
2019-01-30T07:16:04.381Z,35.25
2019-01-30T07:17:01.074Z,36.69
2019-01-30T07:17:57.791Z,37.88
2019-01-30T07:18:54.430Z,38.88
2019-01-30T07:19:51.040Z,39.50
2019-01-30T07:20:47.688Z,39.63
2019-01-30T07:21:44.330Z,39.50
2019-01-30T07:22:43.255Z,39.25
2019-01-30T07:23:40.111Z,39.06
2019-01-30T07:24:37.238Z,38.88
2019-01-30T07:25:33.893Z,38.63
2019-01-30T07:26:30.642Z,38.44
2019-01-30T07:27:27.262Z,38.31
2019-01-30T07:28:23.930Z,38.13
2019-01-30T07:29:20.558Z,37.81
2019-01-30T07:30:17.215Z,37.31
2019-01-30T07:31:13.814Z,36.56
2019-01-30T07:32:10.415Z,35.50
2019-01-30T07:33:07.332Z,34.19
2019-01-30T07:34:04.419Z,32.94
2019-01-30T07:35:01.421Z,32.00
2019-01-30T07:35:58.042Z,32.19
2019-01-30T07:36:54.645Z,33.31
2019-01-30T07:37:52.947Z,34.81
2019-01-30T07:38:49.571Z,36.31
2019-01-30T07:39:46.358Z,37.63
2019-01-30T07:40:43.280Z,38.69
2019-01-30T07:41:39.904Z,39.44
2019-01-30T07:42:36.547Z,39.63
2019-01-30T07:43:33.326Z,39.44
2019-01-30T07:44:29.943Z,39.25
2019-01-30T07:45:26.624Z,39.00
2019-01-30T07:46:23.946Z,38.81
2019-01-30T07:47:20.551Z,38.63
2019-01-30T07:48:17.615Z,38.44
2019-01-30T07:49:14.301Z,38.25
2019-01-30T07:50:10.942Z,38.00
2019-01-30T07:51:07.899Z,37.63
2019-01-30T07:52:04.519Z,37.00
2019-01-30T07:53:01.138Z,36.06
2019-01-30T07:53:57.743Z,34.88
2019-01-30T07:54:54.337Z,34.00
2019-01-30T07:55:50.998Z,33.44
2019-01-30T07:56:47.780Z,33.06
2019-01-30T07:57:44.544Z,32.75
2019-01-30T07:58:41.353Z,32.56
2019-01-30T07:59:38.059Z,32.31
2019-01-30T08:00:34.703Z,32.19
2019-01-30T08:01:31.323Z,32.00
2019-01-30T08:02:28.264Z,31.81
2019-01-30T08:03:25.198Z,31.69
2019-01-30T08:04:21.910Z,31.56
2019-01-30T08:05:18.530Z,31.50
2019-01-30T08:06:15.126Z,31.37
2019-01-30T08:07:12.132Z,31.31
2019-01-30T08:08:08.842Z,31.25
2019-01-30T08:09:05.594Z,31.19
2019-01-30T08:10:02.308Z,31.12
2019-01-30T08:10:59.064Z,31.06
2019-01-30T08:11:55.760Z,31.00
2019-01-30T08:12:52.434Z,31.00
2019-01-30T08:13:49.045Z,31.00
2019-01-30T08:14:45.970Z,30.94
2019-01-30T08:15:42.613Z,30.88
2019-01-30T08:16:39.271Z,30.88
2019-01-30T08:17:35.937Z,30.81
2019-01-30T08:18:32.697Z,30.75
2019-01-30T08:19:29.326Z,30.69
2019-01-30T08:20:25.932Z,30.62
2019-01-30T08:21:22.579Z,30.62
2019-01-30T08:22:19.412Z,30.56
2019-01-30T08:23:16.045Z,30.50
2019-01-30T08:24:13.177Z,30.44
2019-01-30T08:25:10.505Z,30.37
2019-01-30T08:26:07.422Z,30.31
2019-01-30T08:27:04.546Z,30.19
2019-01-30T08:28:01.688Z,30.19
2019-01-30T08:28:58.488Z,30.12
2019-01-30T08:29:56.330Z,31.75
2019-01-30T08:30:53.386Z,31.69
2019-01-30T08:31:50.741Z,30.69
2019-01-30T08:32:47.676Z,29.87
2019-01-30T08:33:44.335Z,30.81
2019-01-30T08:34:43.440Z,32.00
2019-01-30T08:35:40.202Z,32.75
2019-01-30T08:36:36.946Z,33.25
2019-01-30T08:37:33.596Z,33.56
2019-01-30T08:38:30.517Z,33.88
2019-01-30T08:39:27.142Z,34.44
2019-01-30T08:40:24.106Z,35.00
2019-01-30T08:41:20.957Z,35.31
2019-01-30T08:42:17.675Z,35.44
2019-01-30T08:43:14.315Z,35.50
2019-01-30T08:44:10.998Z,35.38
2019-01-30T08:45:07.807Z,35.13
2019-01-30T08:46:04.518Z,34.63
2019-01-30T08:47:01.139Z,33.94
2019-01-30T08:47:57.803Z,32.94
2019-01-30T08:48:54.760Z,31.69
2019-01-30T08:49:51.659Z,31.06
2019-01-30T08:50:48.300Z,31.69
2019-01-30T08:51:45.024Z,33.00
2019-01-30T08:52:41.859Z,34.44
2019-01-30T08:53:40.416Z,35.75
2019-01-30T08:54:37.014Z,36.81
2019-01-30T08:55:34.299Z,37.69
2019-01-30T08:56:31.125Z,38.31
2019-01-30T08:57:28.128Z,38.81
2019-01-30T08:58:24.793Z,39.19
2019-01-30T08:59:21.530Z,39.50
2019-01-30T09:00:18.332Z,39.69
2019-01-30T09:01:14.988Z,39.56
2019-01-30T09:02:11.902Z,39.25
2019-01-30T09:03:14.439Z,38.94
2019-01-30T09:04:11.387Z,38.63
2019-01-30T09:05:08.591Z,38.44
2019-01-30T09:06:05.236Z,38.25
2019-01-30T09:07:01.998Z,38.06
2019-01-30T09:07:58.716Z,37.94
2019-01-30T09:08:55.379Z,37.75
2019-01-30T09:09:52.191Z,37.44
2019-01-30T09:10:49.023Z,36.94
2019-01-30T09:11:45.637Z,36.13
2019-01-30T09:12:42.316Z,35.06
2019-01-30T09:13:39.098Z,33.75
2019-01-30T09:14:36.011Z,32.56
2019-01-30T09:15:32.759Z,31.87
2019-01-30T09:16:29.706Z,32.31
2019-01-30T09:17:26.480Z,33.63
2019-01-30T09:18:25.431Z,35.25
2019-01-30T09:19:22.140Z,36.88
2019-01-30T09:20:18.954Z,38.13
2019-01-30T09:21:15.587Z,38.75
2019-01-30T09:22:12.230Z,38.81
2019-01-30T09:23:09.110Z,38.75
2019-01-30T09:24:05.849Z,38.63
2019-01-30T09:25:02.601Z,38.44
2019-01-30T09:25:59.339Z,38.31
2019-01-30T09:26:56.021Z,38.13
2019-01-30T09:27:52.907Z,38.00
2019-01-30T09:28:49.663Z,37.69
2019-01-30T09:29:46.288Z,37.25
2019-01-30T09:30:43.175Z,36.63
2019-01-30T09:31:41.685Z,35.75
2019-01-30T09:32:38.289Z,34.63
2019-01-30T09:33:35.203Z,33.44
2019-01-30T09:34:31.888Z,32.38
2019-01-30T09:35:28.655Z,31.87
2019-01-30T09:36:25.463Z,32.50
2019-01-30T09:37:22.101Z,33.94
2019-01-30T09:38:18.834Z,35.63
2019-01-30T09:39:15.611Z,37.19
2019-01-30T09:40:12.232Z,38.31
2019-01-30T09:41:08.854Z,38.75
2019-01-30T09:42:07.975Z,38.81
2019-01-30T09:43:07.412Z,38.69
2019-01-30T09:44:04.131Z,38.56
2019-01-30T09:45:01.112Z,38.38
2019-01-30T09:45:57.808Z,38.19
2019-01-30T09:46:54.444Z,38.06
2019-01-30T09:47:51.182Z,37.75
2019-01-30T09:48:47.887Z,37.31
2019-01-30T09:49:44.611Z,36.69
2019-01-30T09:50:41.315Z,35.88
2019-01-30T09:51:38.028Z,34.88
2019-01-30T09:52:34.664Z,33.69
2019-01-30T09:53:31.474Z,32.63
2019-01-30T09:54:28.178Z,31.94
2019-01-30T09:55:25.143Z,31.69
2019-01-30T09:56:21.850Z,31.75
2019-01-30T09:57:18.463Z,31.62
2019-01-30T09:58:15.462Z,31.19
2019-01-30T09:59:12.090Z,30.56
2019-01-30T10:00:08.956Z,30.00
2019-01-30T10:01:05.729Z,29.50
2019-01-30T10:02:02.460Z,29.12
2019-01-30T10:02:59.126Z,28.81
2019-01-30T10:03:55.878Z,28.50
2019-01-30T10:04:52.671Z,28.31
2019-01-30T10:05:49.411Z,28.12
2019-01-30T10:06:46.209Z,28.00
2019-01-30T10:07:42.915Z,27.94
2019-01-30T10:08:40.983Z,27.81
2019-01-30T10:09:37.880Z,27.75
2019-01-30T10:10:34.602Z,27.69
2019-01-30T10:11:31.242Z,27.62
2019-01-30T10:12:27.847Z,27.50
2019-01-30T10:13:24.878Z,27.44
2019-01-30T10:14:21.713Z,27.37
2019-01-30T10:15:18.315Z,27.31
2019-01-30T10:16:15.005Z,27.19
2019-01-30T10:17:11.716Z,27.13
2019-01-30T10:18:08.312Z,27.06
2019-01-30T10:19:05.067Z,27.00
2019-01-30T10:20:01.670Z,26.94
2019-01-30T10:20:58.322Z,26.87
2019-01-30T10:21:54.961Z,26.81
2019-01-30T10:22:53.964Z,26.69
2019-01-30T10:23:50.916Z,26.62
2019-01-30T10:24:50.390Z,26.56
2019-01-30T10:25:46.154Z,26.50
2019-01-30T10:26:42.849Z,26.44
2019-01-30T10:27:41.267Z,26.37
2019-01-30T10:28:38.117Z,26.31
2019-01-30T10:29:34.747Z,26.25
2019-01-30T10:30:31.487Z,26.19
2019-01-30T10:31:28.200Z,26.12
2019-01-30T10:32:24.872Z,26.06
2019-01-30T10:33:21.483Z,26.00
2019-01-30T10:34:18.094Z,25.94
2019-01-30T10:35:14.807Z,25.88
2019-01-30T10:36:11.808Z,25.88
2019-01-30T10:37:08.526Z,25.81
2019-01-30T10:38:05.244Z,25.75
2019-01-30T10:39:02.827Z,25.69
2019-01-30T10:39:59.478Z,25.62
2019-01-30T10:40:56.188Z,25.56
2019-01-30T10:41:52.827Z,25.50
2019-01-30T10:42:49.681Z,25.50
2019-01-30T10:43:46.451Z,25.44
2019-01-30T10:44:43.208Z,25.37
2019-01-30T10:45:39.953Z,25.31
2019-01-30T10:46:36.605Z,25.25
2019-01-30T10:47:33.527Z,25.25
2019-01-30T10:48:30.278Z,25.19
2019-01-30T10:49:26.989Z,25.12
2019-01-30T10:50:23.631Z,25.06
2019-01-30T10:51:20.248Z,25.06
2019-01-30T10:52:16.910Z,25.00
2019-01-30T10:53:13.851Z,24.94
2019-01-30T10:54:10.478Z,24.87
2019-01-30T10:55:07.443Z,24.87
2019-01-30T10:56:04.064Z,24.81
2019-01-30T10:57:00.760Z,24.75
2019-01-30T10:57:57.655Z,24.75
2019-01-30T10:58:54.291Z,24.69
2019-01-30T10:59:50.951Z,24.63
2019-01-30T11:00:47.755Z,24.63
2019-01-30T11:01:44.487Z,24.56
2019-01-30T11:02:41.429Z,24.56
2019-01-30T11:03:38.134Z,24.50
2019-01-30T11:04:34.938Z,24.44
2019-01-30T11:05:31.642Z,24.44
2019-01-30T11:06:28.236Z,24.37
2019-01-30T11:07:28.187Z,24.37
2019-01-30T11:08:24.810Z,24.31
2019-01-30T11:09:21.431Z,24.31
2019-01-30T11:10:19.298Z,24.25
2019-01-30T11:11:15.979Z,24.19
2019-01-30T11:12:12.611Z,24.19
2019-01-30T11:13:09.259Z,24.12
2019-01-30T11:14:06.035Z,24.12
2019-01-30T11:15:03.143Z,24.06
2019-01-30T11:16:01.235Z,24.06
2019-01-30T11:16:58.398Z,24.00
2019-01-30T11:17:55.010Z,24.00
2019-01-30T11:18:51.678Z,23.94
2019-01-30T11:19:48.377Z,23.94
2019-01-30T11:20:44.994Z,23.87
2019-01-30T11:21:41.600Z,23.87
2019-01-30T11:22:38.270Z,23.81
2019-01-30T11:23:34.891Z,23.81
2019-01-30T11:24:31.700Z,23.75
2019-01-30T11:25:28.401Z,23.75
2019-01-30T11:26:25.023Z,23.69
2019-01-30T11:27:21.855Z,23.69
2019-01-30T11:28:18.595Z,23.69
2019-01-30T11:29:15.203Z,23.62
2019-01-30T11:30:12.044Z,23.62
2019-01-30T11:31:08.643Z,23.56
2019-01-30T11:32:05.288Z,23.56
2019-01-30T11:33:01.922Z,23.50
2019-01-30T11:34:07.328Z,23.50
2019-01-30T11:34:57.190Z,23.44
2019-01-30T11:35:54.017Z,23.44
2019-01-30T11:36:50.674Z,23.44
2019-01-30T11:37:47.987Z,23.38
2019-01-30T11:38:44.729Z,23.38
2019-01-30T11:39:41.355Z,23.31
2019-01-30T11:40:38.151Z,23.31
2019-01-30T11:41:34.782Z,23.25
2019-01-30T11:42:34.236Z,23.25
2019-01-30T11:43:31.012Z,23.25
2019-01-30T11:44:28.058Z,23.19
2019-01-30T11:45:24.908Z,23.19
2019-01-30T11:46:21.609Z,23.19
2019-01-30T11:47:18.230Z,23.12
2019-01-30T11:48:14.859Z,23.12
2019-01-30T11:49:11.522Z,23.06
2019-01-30T11:50:08.319Z,23.06
2019-01-30T11:51:07.736Z,23.06
2019-01-30T11:52:04.523Z,23.00
2019-01-30T11:53:01.260Z,23.00
2019-01-30T11:53:57.980Z,22.94
2019-01-30T11:54:54.692Z,22.94
2019-01-30T11:55:53.362Z,22.94
2019-01-30T11:56:50.214Z,22.94
2019-01-30T11:57:46.845Z,23.25
2019-01-30T11:58:44.685Z,23.44
2019-01-30T11:59:43.798Z,24.19
2019-01-30T12:00:44.172Z,25.31
2019-01-30T12:01:43.816Z,27.06
2019-01-30T12:02:47.705Z,29.06
2019-01-30T12:03:39.083Z,30.94
2019-01-30T12:04:35.875Z,32.38
2019-01-30T12:05:32.557Z,33.44
2019-01-30T12:06:29.304Z,34.25
2019-01-30T12:07:26.094Z,34.81
2019-01-30T12:08:22.755Z,35.31
2019-01-30T12:09:19.672Z,35.63
2019-01-30T12:10:16.396Z,35.94
2019-01-30T12:11:13.127Z,36.19
2019-01-30T12:12:09.866Z,36.38
2019-01-30T12:13:06.579Z,36.63